Time;durP1;ratioP1;P1;durP2;ratioP2;P2;SDS_P1;SDS_P2;PMS_P1;PMS_P2;Temp;Humidity;BMP_temperature;BMP_pressure;BME280_temperature;BME280_humidity;BME280_pressure;Samples;Min_cycle;Max_cycle;Signal;HPM_P1;HPM_P2
2021/11/01 00:00:09;;;;;;;;;;;;;;;;;;5070934;28;19928;-80
2021/11/01 00:02:37;;;;;;;;;;;;;;;;;;5096978;28;20352;-79
2021/11/01 00:05:04;;;;;;;;;;;;;;;;;;5111528;28;19928;-78
2021/11/01 00:07:31;;;;;;;;;;;;;;;;;;5111430;28;19928;-78
2021/11/01 00:09:58;;;;;;;;;;;;;;;;;;5111262;28;19928;-79
2021/11/01 00:12:29;;;;;;;;;;;;;;;;;;5111438;28;19924;-80
2021/11/01 00:14:57;;;;;;;;;;;;;;;;;;5111101;28;19928;-80
2021/11/01 00:17:24;;;;;;;;;;;;;;;;;;5113195;28;19927;-79
2021/11/01 00:19:51;;;;;;;;;;;;;;;;;;5114962;28;20372;-79
2021/11/01 00:22:18;;;;;;;;;;;;;;;;;;5115104;28;19928;-79
2021/11/01 00:24:45;;;;;;;;;;;;;;;;;;5114754;28;20341;-79
2021/11/01 00:27:13;;;;;;;;;;;;;;;;;;5114962;28;19924;-79
2021/11/01 00:29:42;;;;;;;;;;;;;;;;;;5115305;28;19923;-79
2021/11/01 00:32:09;;;;;;;;;;;;;;;;;;5114969;28;19938;-80
2021/11/01 00:34:37;;;;;;;;;;;;;;;;;;5115266;28;19934;-80
2021/11/01 00:37:04;;;;;;;;;;;;;;;;;;5114463;28;20010;-80
2021/11/01 00:39:31;;;;;;;;;;;;;;;;;;5114880;28;19934;-78
2021/11/01 00:41:58;;;;;;;;;;;;;;;;;;5114769;28;19940;-80
2021/11/01 00:44:25;;;;;;;;;;;;;;;;;;5114631;28;19934;-78
2021/11/01 00:46:54;;;;;;;;;;;;;;;;;;5114550;28;20284;-78
2021/11/01 00:49:21;;;;;;;;;;;;;;;;;;5114567;28;19924;-78
2021/11/01 00:51:49;;;;;;;;;;;;;;;;;;5114450;28;19935;-78
2021/11/01 00:54:17;;;;;;;;;;;;;;;;;;5114565;28;19967;-79
2021/11/01 00:56:44;;;;;;;;;;;;;;;;;;5114596;28;19963;-80
2021/11/01 00:59:11;;;;;;;;;;;;;;;;;;5114314;28;19935;-79
2021/11/01 01:01:39;;;;;;;;;;;;;;;;;;5114159;28;19924;-79
2021/11/01 01:04:07;;;;;;;;;;;;;;;;;;5114728;28;19950;-79
2021/11/01 01:06:35;;;;;;;;;;;;;;;;;;5114165;28;19928;-78
2021/11/01 01:09:02;;;;;;;;;;;;;;;;;;5114148;28;19928;-80
2021/11/01 01:11:29;;;;;;;;;;;;;;;;;;5114478;28;19929;-79
2021/11/01 01:13:57;;;;;;;;;;;;;;;;;;5114234;28;19935;-79
2021/11/01 01:16:26;;;;;;;;;;;;;;;;;;5114336;28;20014;-78
2021/11/01 01:18:56;;;;;;;;;;;;;;;;;;5114828;28;19924;-80
2021/11/01 01:24:10;;;;;;;;;;;;;;;;;;5114734;28;19985;-81
2021/11/01 01:26:37;;;;;;;;;;;;;;;;;;5113671;28;19938;-79
2021/11/01 01:29:05;;;;;;;;;;;;;;;;;;5113519;28;19996;-79
2021/11/01 01:31:32;;;;;;;;;;;;;;;;;;5113921;28;19928;-80
2021/11/01 01:33:59;;;;;;;;;;;;;;;;;;5113920;28;19923;-81
2021/11/01 01:36:28;;;;;;;;;;;;;;;;;;5113740;28;20325;-79
2021/11/01 01:38:55;;;;;;;;;;;;;;;;;;5113552;28;19930;-79
2021/11/01 01:41:24;;;;;;;;;;;;;;;;;;5113824;28;19935;-81
2021/11/01 01:43:53;;;;;;;;;;;;;;;;;;5114362;28;20004;-80
2021/11/01 01:46:21;;;;;;;;;;;;;;;;;;5113454;28;19928;-80
2021/11/01 01:48:49;;;;;;;;;;;;;;;;;;5113226;28;19932;-78
2021/11/01 01:51:17;;;;;;;;;;;;;;;;;;5113659;28;19935;-78
2021/11/01 01:53:45;;;;;;;;;;;;;;;;;;5114008;28;20292;-78
2021/11/01 01:56:12;;;;;;;;;;;;;;;;;;5113594;28;19928;-78
2021/11/01 01:58:45;;;;;;;;;;;;;;;;;;5113560;28;20249;-78
2021/11/01 02:01:15;;;;;;;;;;;;;;;;;;5113017;28;19985;-78
2021/11/01 02:03:45;;;;;;;;;;;;;;;;;;5113494;28;19945;-80
2021/11/01 02:06:13;;;;;;;;;;;;;;;;;;5113277;28;19927;-78
2021/11/01 02:08:42;;;;;;;;;;;;;;;;;;5113253;28;19935;-81
2021/11/01 02:11:14;;;;;;;;;;;;;;;;;;5113147;28;20065;-80
2021/11/01 02:13:44;;;;;;;;;;;;;;;;;;5113157;28;19924;-81
2021/11/01 02:16:13;;;;;;;;;;;;;;;;;;5112772;28;19924;-78
2021/11/01 02:18:42;;;;;;;;;;;;;;;;;;5112653;28;19931;-78
2021/11/01 02:21:21;;;;;;;;;;;;;;;;;;5113087;28;19939;-79
2021/11/01 02:23:50;;;;;;;;;;;;;;;;;;5112595;28;19942;-82
2021/11/01 02:26:23;;;;;;;;;;;;;;;;;;5112828;28;19943;-81
2021/11/01 02:28:51;;;;;;;;;;;;;;;;;;5112854;28;19935;-78
2021/11/01 02:31:21;;;;;;;;;;;;;;;;;;5112593;28;20278;-78
2021/11/01 02:33:49;;;;;;;;;;;;;;;;;;5112536;28;19927;-80
2021/11/01 02:36:17;;;;;;;;;;;;;;;;;;5112280;28;19923;-79
2021/11/01 02:38:49;;;;;;;;;;;;;;;;;;5112266;28;19936;-79
2021/11/01 02:41:21;;;;;;;;;;;;;;;;;;5111472;28;19924;-78
2021/11/01 02:43:52;;;;;;;;;;;;;;;;;;5112254;28;19932;-79
2021/11/01 02:46:20;;;;;;;;;;;;;;;;;;5112099;28;19932;-79
2021/11/01 02:48:47;;;;;;;;;;;;;;;;;;5111982;28;19939;-80
2021/11/01 02:51:15;;;;;;;;;;;;;;;;;;5112096;28;19949;-78
2021/11/01 02:53:43;;;;;;;;;;;;;;;;;;5112025;28;20372;-81
2021/11/01 02:56:11;;;;;;;;;;;;;;;;;;5112379;28;19934;-81
2021/11/01 02:58:41;;;;;;;;;;;;;;;;;;5112178;28;19932;-78
2021/11/01 03:01:09;;;;;;;;;;;;;;;;;;5111886;28;19937;-79
2021/11/01 03:03:37;;;;;;;;;;;;;;;;;;5112176;28;19924;-79
2021/11/01 03:06:04;;;;;;;;;;;;;;;;;;5112321;28;20230;-77
2021/11/01 03:08:32;;;;;;;;;;;;;;;;;;5111647;28;20273;-78
2021/11/01 03:10:59;;;;;;;;;;;;;;;;;;5111598;28;20008;-79
2021/11/01 03:13:28;;;;;;;;;;;;;;;;;;5111820;28;20376;-79
2021/11/01 03:15:57;;;;;;;;;;;;;;;;;;5111836;28;19923;-79
2021/11/01 03:18:26;;;;;;;;;;;;;;;;;;5112083;28;19938;-78
2021/11/01 03:20:54;;;;;;;;;;;;;;;;;;5110443;28;20261;-78
2021/11/01 03:23:23;;;;;;;;;;;;;;;;;;5111889;28;19967;-81
2021/11/01 03:25:52;;;;;;;;;;;;;;;;;;5111934;28;19931;-81
2021/11/01 03:28:21;;;;;;;;;;;;;;;;;;5111863;28;19953;-81
2021/11/01 03:30:49;;;;;;;;;;;;;;;;;;5113704;28;20360;-81
2021/11/01 03:33:17;;;;;;;;;;;;;;;;;;5112927;28;19924;-78
2021/11/01 03:35:45;;;;;;;;;;;;;;;;;;5111456;28;20328;-79
2021/11/01 03:38:13;;;;;;;;;;;;;;;;;;5111508;28;19993;-81
2021/11/01 03:40:42;;;;;;;;;;;;;;;;;;5111501;28;19924;-78
2021/11/01 03:43:10;;;;;;;;;;;;;;;;;;5111406;28;20356;-79
2021/11/01 03:45:38;;;;;;;;;;;;;;;;;;5111800;28;19935;-78
2021/11/01 03:48:08;;;;;;;;;;;;;;;;;;5111161;28;19924;-78
2021/11/01 03:50:40;;;;;;;;;;;;;;;;;;5112081;28;20329;-78
2021/11/01 03:53:08;;;;;;;;;;;;;;;;;;5114595;28;19931;-79
2021/11/01 03:55:35;;;;;;;;;;;;;;;;;;5115783;28;19981;-79
2021/11/01 03:58:03;;;;;;;;;;;;;;;;;;5115572;28;19938;-81
2021/11/01 04:00:31;;;;;;;;;;;;;;;;;;5115174;28;20331;-79
2021/11/01 04:02:58;;;;;;;;;;;;;;;;;;5115238;27;20353;-81
2021/11/01 04:05:26;;;;;;;;;;;;;;;;;;5115373;28;19935;-80
2021/11/01 04:07:55;;;;;;;;;;;;;;;;;;5115162;28;19928;-78
2021/11/01 04:10:23;;;;;;;;;;;;;;;;;;5115497;28;19938;-79
2021/11/01 04:12:50;;;;;;;;;;;;;;;;;;5114942;28;19923;-78
2021/11/01 04:15:20;;;;;;;;;;;;;;;;;;5115237;28;20358;-78
2021/11/01 04:17:49;;;;;;;;;;;;;;;;;;5115355;28;19927;-78
2021/11/01 04:20:33;;;;;;;;;;;;;;;;;;5115088;28;19934;-81
2021/11/01 04:23:04;;;;;;;;;;;;;;;;;;5115020;27;19923;-81
2021/11/01 04:25:32;;;;;;;;;;;;;;;;;;5115008;28;20371;-78
2021/11/01 04:28:00;;;;;;;;;;;;;;;;;;5115152;28;20035;-78
2021/11/01 04:30:31;;;;;;;;;;;;;;;;;;5115168;28;19958;-78
2021/11/01 04:33:01;;;;;;;;;;;;;;;;;;5114947;28;19942;-78
2021/11/01 04:35:34;;;;;;;;;;;;;;;;;;5114552;28;19984;-78
2021/11/01 04:38:06;;;;;;;;;;;;;;;;;;5114646;28;19923;-78
2021/11/01 04:40:46;;;;;;;;;;;;;;;;;;5114859;28;19927;-79
2021/11/01 04:54:22;;;;;;;;;;;;;;;;;;5114373;28;19935;-78
2021/11/01 04:56:50;;;;;;;;;;;;;;;;;;5114414;28;20356;-80
2021/11/01 04:59:17;;;;;;;;;;;;;;;;;;5114403;28;19996;-78
2021/11/01 05:01:47;;;;;;;;;;;;;;;;;;5114245;28;19935;-78
2021/11/01 05:04:17;;;;;;;;;;;;;;;;;;5113660;28;19923;-81
2021/11/01 05:06:49;;;;;;;;;;;;;;;;;;5113788;28;19924;-78
2021/11/01 05:09:19;;;;;;;;;;;;;;;;;;5114227;28;20391;-81
2021/11/01 05:11:56;;;;;;;;;;;;;;;;;;5113935;28;19985;-78
2021/11/01 05:14:30;;;;;;;;;;;;;;;;;;5114099;28;20012;-79
2021/11/01 05:17:07;;;;;;;;;;;;;;;;;;5114190;28;19924;-79
2021/11/01 05:19:39;;;;;;;;;;;;;;;;;;5114085;28;20060;-79
2021/11/01 05:22:12;;;;;;;;;;;;;;;;;;5113958;28;19923;-78
2021/11/01 05:24:42;;;;;;;;;;;;;;;;;;5113464;28;20326;-79
2021/11/01 05:27:33;;;;;;;;;;;;;;;;;;5113984;28;20014;-80
2021/11/01 05:30:05;;;;;;;;;;;;;;;;;;5113823;28;19931;-79
2021/11/01 05:32:33;;;;;;;;;;;;;;;;;;5113515;28;19924;-79
2021/11/01 05:35:00;;;;;;;;;;;;;;;;;;5113746;28;19927;-79
2021/11/01 05:37:27;;;;;;;;;;;;;;;;;;5113379;28;19939;-78
2021/11/01 05:39:54;;;;;;;;;;;;;;;;;;5113910;28;19924;-79
2021/11/01 05:42:23;;;;;;;;;;;;;;;;;;5113241;28;20242;-79
2021/11/01 05:44:50;;;;;;;;;;;;;;;;;;5113295;28;19923;-78
2021/11/01 05:47:17;;;;;;;;;;;;;;;;;;5113528;28;19951;-78
2021/11/01 05:49:44;;;;;;;;;;;;;;;;;;5113010;28;19924;-78
2021/11/01 05:52:18;;;;;;;;;;;;;;;;;;5113170;28;19931;-78
2021/11/01 05:54:45;;;;;;;;;;;;;;;;;;5113129;28;19981;-78
2021/11/01 05:57:17;;;;;;;;;;;;;;;;;;5113017;28;20018;-78
2021/11/01 06:02:49;;;;;;;;;;;;;;;;;;5109211;27;20371;-78
2021/11/01 06:05:26;;;;;;;;;;;;;;;;;;5109569;28;19950;-79
2021/11/01 06:08:09;;;;;;;;;;;;;;;;;;5108981;28;19928;-79
2021/11/01 06:10:50;;;;;;;;;;;;;;;;;;5109407;28;20009;-79
2021/11/01 06:13:28;;;;;;;;;;;;;;;;;;5109095;28;19962;-79
2021/11/01 06:15:55;;;;;;;;;;;;;;;;;;5109065;28;19931;-79
2021/11/01 06:18:34;;;;;;;;;;;;;;;;;;5108467;28;20338;-78
2021/11/01 06:21:01;;;;;;;;;;;;;;;;;;5109233;28;19932;-79
2021/11/01 06:23:28;;;;;;;;;;;;;;;;;;5108986;28;20465;-78
2021/11/01 06:25:56;;;;;;;;;;;;;;;;;;5108750;28;19935;-79
2021/11/01 06:28:23;;;;;;;;;;;;;;;;;;5108952;28;19935;-78
2021/11/01 06:30:53;;;;;;;;;;;;;;;;;;5108851;28;19924;-78
2021/11/01 06:33:44;;;;;;;;;;;;;;;;;;5108776;28;19936;-78
2021/11/01 06:41:49;;;;;;;;;;;;;;;;;;5087258;28;19939;-78
2021/11/01 06:44:28;;;;;;;;;;;;;;;;;;5108618;28;20024;-78
2021/11/01 06:49:54;;;;;;;;;;;;;;;;;;5066786;28;20041;-77
2021/11/01 06:55:25;;;;;;;;;;;;;;;;;;5108344;28;19939;-77
2021/11/01 07:14:33;;;;;;;;;;;;;;;;;;5114444;28;19939;-79
2021/11/01 07:17:04;;;;;;;;;;;;;;;;;;5114773;28;20011;-78
2021/11/01 07:19:48;;;;;;;;;;;;;;;;;;5114514;28;19924;-79
2021/11/01 08:17:47;;;;;;;;;;;;;;;;;;5108548;28;19934;-79
2021/11/01 08:28:42;;;;;;;;;;;;;;;;;;5107935;28;19931;-79
2021/11/01 08:34:32;;;;;;;;;;;;;;;;;;5128480;28;20088;-80
2021/11/01 08:50:38;;;;;;;;;;;;;;;;;;5080507;28;19927;-78
2021/11/01 09:04:36;;;;;;;;;;;;;;;;;;5109419;27;19920;-79
2021/11/01 09:07:20;;;;;;;;;;;;;;;;;;5088612;28;19941;-80
2021/11/01 09:10:13;;;;;;;;;;;;;;;;;;5089067;28;19970;-82
2021/11/01 09:24:03;;;;;;;;;;;;;;;;;;5058594;28;19935;-80
2021/11/01 09:26:34;;;;;;;;;;;;;;;;;;5068080;28;20015;-80
2021/11/01 09:29:10;;;;;;;;;;;;;;;;;;5068393;28;19924;-81
2021/11/01 09:37:12;;;;;;;;;;;;;;;;;;5056611;28;19955;-82
2021/11/01 09:40:53;;;;;;;;;;;;;;;;;;5068218;28;19998;-82
2021/11/01 09:42:32;;;;;;;;;;;;;;;;;;5067804;28;19984;-81
2021/11/01 09:45:00;;;;;;;;;;;;;;;;;;5067689;28;19929;-81
2021/11/01 09:47:29;;;;;;;;;;;;;;;;;;5067806;28;19936;-81
2021/11/01 09:49:56;;;;;;;;;;;;;;;;;;5067638;28;19925;-82
2021/11/01 09:52:25;;;;;;;;;;;;;;;;;;5067842;28;19929;-82
2021/11/01 09:54:55;;;;;;;;;;;;;;;;;;5067765;28;20341;-82
2021/11/01 09:57:25;;;;;;;;;;;;;;;;;;5067585;28;20171;-82
2021/11/01 09:59:51;;;;;;;;;;;;;;;;;;5067644;28;19928;-83
2021/11/01 10:02:20;;;;;;;;;;;;;;;;;;5067302;28;19983;-81
2021/11/01 10:04:49;;;;;;;;;;;;;;;;;;5067466;28;20423;-80
2021/11/01 10:07:20;;;;;;;;;;;;;;;;;;5067331;28;19932;-83
2021/11/01 10:09:50;;;;;;;;;;;;;;;;;;5067449;28;19929;-82
2021/11/01 10:12:18;;;;;;;;;;;;;;;;;;5073549;28;20239;-82
2021/11/01 10:14:52;;;;;;;;;;;;;;;;;;5078832;28;19925;-80
2021/11/01 10:17:37;;;;;;;;;;;;;;;;;;5074233;28;20023;-80
2021/11/01 10:20:06;;;;;;;;;;;;;;;;;;5074260;28;19934;-81
2021/11/01 10:22:35;;;;;;;;;;;;;;;;;;5073807;28;19979;-80
2021/11/01 10:25:05;;;;;;;;;;;;;;;;;;5073841;28;19924;-80
2021/11/01 10:27:33;;;;;;;;;;;;;;;;;;5073817;28;19943;-83
2021/11/01 10:30:01;;;;;;;;;;;;;;;;;;5073984;28;19935;-83
2021/11/01 10:32:32;;;;;;;;;;;;;;;;;;5074099;28;19935;-82
2021/11/01 10:35:15;;;;;;;;;;;;;;;;;;5073952;28;19928;-79
2021/11/01 10:37:59;;;;;;;;;;;;;;;;;;5073409;28;19936;-78
2021/11/01 10:40:29;;;;;;;;;;;;;;;;;;5073737;28;19936;-78
2021/11/01 10:43:05;;;;;;;;;;;;;;;;;;5073529;28;19971;-77
2021/11/01 10:45:49;;;;;;;;;;;;;;;;;;5073579;28;19975;-77
2021/11/01 11:13:13;;;;;;;;;;;;;;;;;;5072956;28;19981;-79
2021/11/01 11:15:41;;;;;;;;;;;;;;;;;;5073195;28;19924;-78
2021/11/01 11:18:23;;;;;;;;;;;;;;;;;;5072611;28;20414;-80
2021/11/01 11:21:02;;;;;;;;;;;;;;;;;;5073122;28;20284;-79
2021/11/01 11:26:41;;;;;;;;;;;;;;;;;;5071619;28;20001;-78
2021/11/01 11:29:30;;;;;;;;;;;;;;;;;;5073173;28;19928;-78
2021/11/01 11:40:39;;;;;;;;;;;;;;;;;;5072860;28;20001;-80
2021/11/01 11:43:17;;;;;;;;;;;;;;;;;;5072788;28;19924;-80
2021/11/01 11:48:34;;;;;;;;;;;;;;;;;;5071979;28;20264;-80
2021/11/01 11:51:05;;;;;;;;;;;;;;;;;;5072278;28;20078;-80
2021/11/01 11:53:33;;;;;;;;;;;;;;;;;;5071988;28;20354;-80
2021/11/01 11:56:05;;;;;;;;;;;;;;;;;;5072308;28;19924;-80
2021/11/01 11:58:33;;;;;;;;;;;;;;;;;;5072257;28;19925;-81
2021/11/01 12:01:01;;;;;;;;;;;;;;;;;;5071746;28;19924;-80
2021/11/01 12:03:38;;;;;;;;;;;;;;;;;;5071441;28;19939;-81
2021/11/01 12:06:11;;;;;;;;;;;;;;;;;;5072180;28;20086;-79
2021/11/01 12:08:41;;;;;;;;;;;;;;;;;;5071813;28;19993;-79
2021/11/01 12:19:37;;;;;;;;;;;;;;;;;;5071581;28;19935;-78
2021/11/01 12:22:12;;;;;;;;;;;;;;;;;;5072112;28;20250;-78
2021/11/01 12:24:46;;;;;;;;;;;;;;;;;;5071160;28;19935;-78
2021/11/01 12:27:13;;;;;;;;;;;;;;;;;;5071898;28;19986;-78
2021/11/01 12:29:41;;;;;;;;;;;;;;;;;;5071436;28;19925;-78
2021/11/01 12:32:12;;;;;;;;;;;;;;;;;;5071510;28;19935;-80
2021/11/01 12:34:49;;;;;;;;;;;;;;;;;;5071538;28;20270;-78
2021/11/01 12:37:19;;;;;;;;;;;;;;;;;;5070971;28;19928;-79
2021/11/01 12:39:50;;;;;;;;;;;;;;;;;;5071794;28;19934;-78
2021/11/01 12:42:36;;;;;;;;;;;;;;;;;;5071677;28;19924;-80
2021/11/01 12:58:54;;;;;;;;;;;;;;;;;;5071540;28;20409;-80
2021/11/01 13:01:22;;;;;;;;;;;;;;;;;;5071228;28;19952;-78
2021/11/01 13:03:52;;;;;;;;;;;;;;;;;;5071067;28;19928;-79
2021/11/01 13:06:31;;;;;;;;;;;;;;;;;;5070719;28;20015;-79
2021/11/01 13:09:05;;;;;;;;;;;;;;;;;;5071416;28;19935;-77
2021/11/01 13:11:42;;;;;;;;;;;;;;;;;;5071277;28;19924;-78
2021/11/01 13:14:40;;;;;;;;;;;;;;;;;;5061915;28;19929;-79
2021/11/01 13:19:54;;;;;;;;;;;;;;;;;;5070865;28;19978;-79
2021/11/01 13:22:25;;;;;;;;;;;;;;;;;;5070505;28;20011;-78
2021/11/01 13:24:59;;;;;;;;;;;;;;;;;;5070857;28;19935;-78
2021/11/01 13:27:39;;;;;;;;;;;;;;;;;;5071266;28;19943;-78
2021/11/01 13:35:55;;;;;;;;;;;;;;;;;;5070922;28;19940;-78
2021/11/01 13:38:30;;;;;;;;;;;;;;;;;;5070675;28;19956;-78
2021/11/01 13:40:57;;;;;;;;;;;;;;;;;;5071150;28;19982;-78
2021/11/01 13:43:27;;;;;;;;;;;;;;;;;;5070488;28;20429;-79
2021/11/01 13:45:57;;;;;;;;;;;;;;;;;;5070869;28;19924;-78
2021/11/01 13:48:25;;;;;;;;;;;;;;;;;;5070425;28;20318;-80
2021/11/01 13:51:00;;;;;;;;;;;;;;;;;;5074356;28;19925;-80
2021/11/01 13:53:29;;;;;;;;;;;;;;;;;;5074516;28;20365;-80
2021/11/01 13:56:15;;;;;;;;;;;;;;;;;;5074301;28;20031;-80
2021/11/01 13:58:53;;;;;;;;;;;;;;;;;;5074347;28;20092;-80
2021/11/01 14:01:28;;;;;;;;;;;;;;;;;;5074264;28;19928;-79
2021/11/01 14:12:27;;;;;;;;;;;;;;;;;;5074298;28;19935;-78
2021/11/01 14:14:59;;;;;;;;;;;;;;;;;;5073786;28;19928;-78
2021/11/01 14:17:55;;;;;;;;;;;;;;;;;;5073879;28;19936;-81
2021/11/01 14:20:44;;;;;;;;;;;;;;;;;;5074327;28;19925;-80
2021/11/01 14:28:54;;;;;;;;;;;;;;;;;;5074033;28;19967;-80
2021/11/01 15:02:18;;;;;;;;;;;;;;;;;;5072645;28;19946;-78
2021/11/01 15:07:59;;;;;;;;;;;;;;;;;;5072894;28;19938;-79
2021/11/01 15:10:56;;;;;;;;;;;;;;;;;;5073002;28;19928;-79
2021/11/01 15:13:38;;;;;;;;;;;;;;;;;;5072789;28;19934;-79
2021/11/01 15:16:19;;;;;;;;;;;;;;;;;;5073036;28;19932;-80
2021/11/01 15:21:34;;;;;;;;;;;;;;;;;;5072197;28;20431;-78
2021/11/01 15:24:29;;;;;;;;;;;;;;;;;;5072863;28;19981;-81
2021/11/01 15:27:20;;;;;;;;;;;;;;;;;;5073004;28;19932;-80
2021/11/01 15:33:06;;;;;;;;;;;;;;;;;;5072428;28;20265;-81
2021/11/01 16:19:41;;;;;;;;;;;;;;;;;;5060927;28;19936;-81
2021/11/01 16:22:08;;;;;;;;;;;;;;;;;;5071636;28;19935;-80
2021/11/01 16:24:36;;;;;;;;;;;;;;;;;;5071585;28;19924;-80
2021/11/01 16:27:05;;;;;;;;;;;;;;;;;;5071853;28;20006;-79
2021/11/01 16:29:41;;;;;;;;;;;;;;;;;;5071577;28;19935;-79
2021/11/01 16:32:15;;;;;;;;;;;;;;;;;;5071767;28;19979;-79
2021/11/01 16:34:45;;;;;;;;;;;;;;;;;;5071433;28;19960;-79
2021/11/01 16:37:24;;;;;;;;;;;;;;;;;;5071278;28;20030;-79
2021/11/01 16:39:51;;;;;;;;;;;;;;;;;;5071533;28;20021;-79
2021/11/01 16:42:20;;;;;;;;;;;;;;;;;;5071778;28;20345;-79
2021/11/01 16:44:47;;;;;;;;;;;;;;;;;;5071280;28;19924;-79
2021/11/01 16:47:16;;;;;;;;;;;;;;;;;;5071469;28;19928;-79
2021/11/01 16:49:45;;;;;;;;;;;;;;;;;;5071310;28;19956;-79
2021/11/01 16:52:16;;;;;;;;;;;;;;;;;;5071306;28;20421;-81
2021/11/01 16:54:46;;;;;;;;;;;;;;;;;;5071576;28;19939;-81
2021/11/01 16:57:18;;;;;;;;;;;;;;;;;;5071201;28;19934;-81
2021/11/01 16:59:51;;;;;;;;;;;;;;;;;;5071114;28;19928;-79
2021/11/01 17:02:36;;;;;;;;;;;;;;;;;;5070822;28;19952;-78
2021/11/01 17:05:13;;;;;;;;;;;;;;;;;;5070883;28;20274;-78
2021/11/01 17:07:53;;;;;;;;;;;;;;;;;;5071040;28;19935;-79
2021/11/01 17:10:43;;;;;;;;;;;;;;;;;;5070922;28;19925;-79
2021/11/01 17:21:39;;;;;;;;;;;;;;;;;;5070459;28;19935;-79
2021/11/01 17:24:21;;;;;;;;;;;;;;;;;;5071667;28;19977;-79
2021/11/01 17:27:07;;;;;;;;;;;;;;;;;;5074788;28;20208;-79
2021/11/01 17:35:17;;;;;;;;;;;;;;;;;;5074578;28;19932;-79
2021/11/01 17:38:05;;;;;;;;;;;;;;;;;;5074609;28;19934;-79
2021/11/01 18:38:50;;;;;;;;;;;;;;;;;;5073346;28;19936;-79
2021/11/01 18:41:19;;;;;;;;;;;;;;;;;;5073245;28;19935;-80
2021/11/01 18:52:04;;;;;;;;;;;;;;;;;;5073246;28;19935;-79
2021/11/01 18:54:35;;;;;;;;;;;;;;;;;;5073172;28;19982;-80
2021/11/01 18:57:03;;;;;;;;;;;;;;;;;;5073270;28;20003;-79
2021/11/01 18:59:35;;;;;;;;;;;;;;;;;;5073335;28;19939;-79
2021/11/01 19:02:19;;;;;;;;;;;;;;;;;;5072667;28;19924;-79
2021/11/01 19:04:52;;;;;;;;;;;;;;;;;;5072999;28;19928;-79
2021/11/01 19:07:27;;;;;;;;;;;;;;;;;;5072658;28;20188;-81
2021/11/01 19:10:07;;;;;;;;;;;;;;;;;;5072893;28;20293;-80
2021/11/01 20:03:01;;;;;;;;;;;;;;;;;;5051926;28;19979;-81
2021/11/01 20:05:36;;;;;;;;;;;;;;;;;;5051560;28;20374;-81
2021/11/01 20:13:42;;;;;;;;;;;;;;;;;;5066767;28;19924;-81
2021/11/01 21:25:26;;;;;;;;;;;;;;;;;;5070790;28;19936;-80
2021/11/01 21:27:55;;;;;;;;;;;;;;;;;;5071218;28;19924;-80
2021/11/01 21:30:22;;;;;;;;;;;;;;;;;;5071051;28;19924;-80
2021/11/01 21:32:49;;;;;;;;;;;;;;;;;;5070815;28;19928;-79
2021/11/01 21:35:18;;;;;;;;;;;;;;;;;;5070688;28;19929;-79
2021/11/01 21:37:46;;;;;;;;;;;;;;;;;;5070437;28;20322;-79
2021/11/01 21:40:15;;;;;;;;;;;;;;;;;;5071033;28;19929;-80
2021/11/01 21:42:43;;;;;;;;;;;;;;;;;;5071034;28;19940;-80
2021/11/01 21:45:12;;;;;;;;;;;;;;;;;;5070663;28;20261;-79
2021/11/01 21:47:39;;;;;;;;;;;;;;;;;;5070823;28;19928;-79
2021/11/01 21:50:07;;;;;;;;;;;;;;;;;;5070739;28;20256;-81
2021/11/01 21:52:36;;;;;;;;;;;;;;;;;;5070906;28;20311;-78
2021/11/01 21:55:05;;;;;;;;;;;;;;;;;;5070830;28;19928;-78
2021/11/01 21:57:37;;;;;;;;;;;;;;;;;;5070599;28;20407;-79
2021/11/01 22:00:25;;;;;;;;;;;;;;;;;;5070852;28;19931;-81
2021/11/01 22:16:45;;;;;;;;;;;;;;;;;;5074145;28;19935;-79
2021/11/01 22:22:07;;;;;;;;;;;;;;;;;;5073920;28;20285;-79
2021/11/01 22:24:42;;;;;;;;;;;;;;;;;;5073768;28;20097;-80
2021/11/01 22:33:05;;;;;;;;;;;;;;;;;;5074188;28;19935;-81
2021/11/01 22:38:29;;;;;;;;;;;;;;;;;;5073239;28;19986;-79
2021/11/01 22:40:59;;;;;;;;;;;;;;;;;;5073682;28;19924;-79
2021/11/01 22:43:51;;;;;;;;;;;;;;;;;;5073756;28;19951;-79
2021/11/01 22:46:37;;;;;;;;;;;;;;;;;;5073549;28;19925;-79
2021/11/01 22:57:20;;;;;;;;;;;;;;;;;;5073228;28;19993;-80
2021/11/01 22:59:47;;;;;;;;;;;;;;;;;;5073138;28;19924;-80
2021/11/01 23:02:14;;;;;;;;;;;;;;;;;;5072953;28;19924;-80
2021/11/01 23:04:48;;;;;;;;;;;;;;;;;;5073070;28;19924;-80
2021/11/01 23:32:06;;;;;;;;;;;;;;;;;;5072474;28;19983;-81
2021/11/01 23:34:33;;;;;;;;;;;;;;;;;;5072474;28;20380;-80
2021/11/01 23:37:01;;;;;;;;;;;;;;;;;;5071915;28;20265;-79
2021/11/01 23:39:29;;;;;;;;;;;;;;;;;;5072271;28;19935;-79
2021/11/01 23:41:56;;;;;;;;;;;;;;;;;;5072568;28;19928;-79
2021/11/01 23:44:24;;;;;;;;;;;;;;;;;;5072298;28;19931;-79
2021/11/01 23:46:51;;;;;;;;;;;;;;;;;;5072475;28;19987;-79
2021/11/01 23:49:18;;;;;;;;;;;;;;;;;;5071991;28;20269;-80
2021/11/01 23:51:52;;;;;;;;;;;;;;;;;;5072000;28;19967;-79
2021/11/01 23:54:37;;;;;;;;;;;;;;;;;;5072170;28;19928;-79
2021/11/01 23:57:07;;;;;;;;;;;;;;;;;;5072237;28;20265;-80
2021/11/01 23:59:34;;;;;;;;;;;;;;;;;;5072044;28;20261;-79
